Time;durP1;ratioP1;P1;durP2;ratioP2;P2;SDS_P1;SDS_P2;PMS_P1;PMS_P2;Temp;Humidity;BMP_temperature;BMP_pressure;BME280_temperature;BME280_humidity;BME280_pressure;Samples;Min_cycle;Max_cycle;Signal;HPM_P1;HPM_P2
2021/07/24 00:00:58;;;;;;;;;;;;;;;-144.99;92.05;52309.50;5010656;28;20412;-68
2021/07/24 00:03:26;;;;;;;;;;;;;;;-144.99;92.38;52340.06;5009041;28;19983;-68
2021/07/24 00:05:53;;;;;;;;;;;;;;;-144.99;92.40;52344.16;5016537;28;20048;-68
2021/07/24 00:08:19;;;;;;;;;;;;;;;-144.99;92.73;52333.94;5014104;28;19932;-68
2021/07/24 00:10:45;;;;;;;;;;;;;;;-144.99;92.89;52350.25;5010352;28;20000;-67
2021/07/24 00:13:12;;;;;;;;;;;;;;;-144.99;93.13;52309.50;5009751;28;19985;-68
2021/07/24 00:15:39;;;;;;;;;;;;;;;-144.99;93.23;52317.66;5004640;28;19982;-67
2021/07/24 00:18:06;;;;;;;;;;;;;;;-144.99;93.41;52333.94;5017523;28;19987;-67
2021/07/24 00:20:32;;;;;;;;;;;;;;;-144.99;93.65;52333.94;5010174;28;19980;-68
2021/07/24 00:22:59;;;;;;;;;;;;;;;-144.99;93.76;52350.25;5013562;28;19991;-69
2021/07/24 00:25:25;;;;;;;;;;;;;;;-144.99;93.86;52338.03;5010177;28;19978;-67
2021/07/24 00:27:51;;;;;;;;;;;;;;;-144.99;94.29;52325.81;5008903;28;19981;-68
2021/07/24 00:30:18;;;;;;;;;;;;;;;-144.99;94.58;52305.41;5005678;28;19998;-67
2021/07/24 00:32:45;;;;;;;;;;;;;;;-144.99;94.78;52352.28;5009526;28;19971;-67
2021/07/24 00:35:12;;;;;;;;;;;;;;;-144.99;94.72;52321.72;5009485;28;20330;-68
2021/07/24 00:37:38;;;;;;;;;;;;;;;-144.99;95.08;52358.41;5006353;28;20452;-66
2021/07/24 00:40:05;;;;;;;;;;;;;;;-144.99;95.15;52317.66;5009551;28;20158;-66
2021/07/24 00:42:31;;;;;;;;;;;;;;;-144.99;95.28;52321.72;5009613;28;19979;-66
2021/07/24 00:44:58;;;;;;;;;;;;;;;-144.99;95.21;52325.81;5008803;28;19979;-66
2021/07/24 00:47:27;;;;;;;;;;;;;;;-144.99;95.33;52329.88;5008648;28;19970;-67
2021/07/24 00:49:57;;;;;;;;;;;;;;;-144.99;95.25;52346.19;5009389;28;20182;-68
2021/07/24 00:52:24;;;;;;;;;;;;;;;-144.99;95.38;52333.94;5008221;28;19986;-67
2021/07/24 00:54:50;;;;;;;;;;;;;;;-144.99;95.35;52317.66;5012157;28;19936;-67
2021/07/24 00:57:16;;;;;;;;;;;;;;;-144.99;95.46;52317.66;5010172;28;19985;-67
2021/07/24 00:59:43;;;;;;;;;;;;;;;-144.99;95.52;52342.09;5008679;28;20017;-67
2021/07/24 01:02:09;;;;;;;;;;;;;;;-144.99;95.39;52346.19;5009667;28;20001;-67
2021/07/24 01:04:36;;;;;;;;;;;;;;;-144.99;95.68;52344.16;5009209;28;20444;-67
2021/07/24 01:07:06;;;;;;;;;;;;;;;-144.99;95.62;52307.47;5016999;28;19975;-67
2021/07/24 01:09:33;;;;;;;;;;;;;;;-144.99;95.72;52354.34;5016664;28;20002;-68
2021/07/24 01:12:01;;;;;;;;;;;;;;;-144.99;95.70;52352.28;5009906;28;20434;-68
2021/07/24 01:14:27;;;;;;;;;;;;;;;-144.99;96.01;52346.19;5008838;28;19968;-68
2021/07/24 01:16:54;;;;;;;;;;;;;;;-144.99;96.03;52325.81;5012487;28;19980;-68
2021/07/24 01:19:20;;;;;;;;;;;;;;;-144.99;96.01;52305.41;5015404;28;20388;-68
2021/07/24 01:21:48;;;;;;;;;;;;;;;-144.99;96.07;52317.66;5012364;28;19992;-68
2021/07/24 01:24:15;;;;;;;;;;;;;;;-144.99;95.96;52321.72;5015818;28;19980;-68
2021/07/24 01:26:43;;;;;;;;;;;;;;;-144.99;95.98;52323.75;5012613;28;19959;-67
2021/07/24 01:29:13;;;;;;;;;;;;;;;-144.99;95.99;52338.03;5018839;28;19970;-67
2021/07/24 01:31:39;;;;;;;;;;;;;;;-144.99;96.08;52352.28;5009844;28;19972;-68
2021/07/24 01:34:06;;;;;;;;;;;;;;;-144.99;96.33;52340.06;5011995;28;19989;-67
2021/07/24 01:36:32;;;;;;;;;;;;;;;-144.99;96.14;52311.53;5012709;28;19970;-67
2021/07/24 01:39:00;;;;;;;;;;;;;;;-144.99;96.21;52317.66;5009788;28;19926;-68
2021/07/24 01:41:26;;;;;;;;;;;;;;;-144.99;96.10;52342.09;5013275;28;19993;-68
2021/07/24 01:43:53;;;;;;;;;;;;;;;-144.99;96.07;52317.66;5013777;28;19963;-68
2021/07/24 01:46:19;;;;;;;;;;;;;;;-144.99;96.02;52325.81;5009116;28;20448;-68
2021/07/24 01:48:52;;;;;;;;;;;;;;;-144.99;96.14;52336.00;5000806;28;19987;-68
2021/07/24 01:54:17;;;;;;;;;;;;;;;-144.99;96.17;52350.25;5013514;28;19977;-68
2021/07/24 01:56:43;;;;;;;;;;;;;;;-144.99;96.12;52321.72;5015109;28;19976;-68
2021/07/24 01:59:10;;;;;;;;;;;;;;;-144.99;95.89;52321.72;5012071;28;19985;-68
2021/07/24 02:01:37;;;;;;;;;;;;;;;-144.99;96.23;52311.53;5006044;28;19996;-69
2021/07/24 02:04:09;;;;;;;;;;;;;;;-144.99;96.10;52311.53;5011327;28;19970;-69
2021/07/24 02:06:36;;;;;;;;;;;;;;;-144.99;95.94;52354.34;5020133;28;19968;-67
2021/07/24 02:09:02;;;;;;;;;;;;;;;-144.99;96.03;52362.50;5019092;28;20045;-67
2021/07/24 02:11:32;;;;;;;;;;;;;;;-144.99;96.22;52333.94;5012153;28;19986;-67
2021/07/24 02:13:59;;;;;;;;;;;;;;;-144.99;96.03;52325.81;5011812;28;19960;-68
2021/07/24 02:16:26;;;;;;;;;;;;;;;-144.99;96.02;52350.25;5003696;28;19953;-68
2021/07/24 02:18:52;;;;;;;;;;;;;;;-144.99;96.23;52327.84;5001025;28;19978;-66
2021/07/24 02:21:18;;;;;;;;;;;;;;;-144.99;96.39;52354.34;5012048;28;20511;-66
2021/07/24 02:23:45;;;;;;;;;;;;;;;-144.99;96.42;52378.78;5022236;28;20475;-67
2021/07/24 02:26:12;;;;;;;;;;;;;;;-144.99;96.36;52350.25;5011794;28;19973;-66
2021/07/24 02:28:39;;;;;;;;;;;;;;;-144.99;96.47;52352.28;5015499;28;19946;-67
2021/07/24 02:31:06;;;;;;;;;;;;;;;-144.99;96.64;52376.75;5026315;28;19995;-65
2021/07/24 02:33:32;;;;;;;;;;;;;;;-144.99;96.68;52346.19;5012404;28;20471;-65
2021/07/24 02:35:59;;;;;;;;;;;;;;;-144.99;96.62;52368.59;5011603;28;19981;-63
2021/07/24 02:38:25;;;;;;;;;;;;;;;-144.99;96.82;52350.25;5008444;28;19976;-64
2021/07/24 02:40:51;;;;;;;;;;;;;;;-144.99;96.93;52362.50;5006895;28;19993;-64
2021/07/24 02:43:18;;;;;;;;;;;;;;;-144.99;96.83;52333.94;5012058;28;20207;-68
2021/07/24 02:45:45;;;;;;;;;;;;;;;-144.99;97.06;52368.59;5012026;28;19961;-68
2021/07/24 02:48:12;;;;;;;;;;;;;;;-144.99;97.29;52350.25;5001100;28;20270;-68
2021/07/24 02:50:38;;;;;;;;;;;;;;;-144.99;97.38;52338.03;4997631;28;19991;-68
2021/07/24 02:53:05;;;;;;;;;;;;;;;-144.99;97.50;52317.66;5013012;28;19976;-68
2021/07/24 02:55:31;;;;;;;;;;;;;;;-144.99;97.53;52360.44;5010990;28;20536;-63
2021/07/24 02:57:57;;;;;;;;;;;;;;;-144.99;97.45;52321.72;5009559;28;20355;-62
2021/07/24 03:00:24;;;;;;;;;;;;;;;-144.99;97.52;52340.06;5011174;28;19993;-63
2021/07/24 03:02:51;;;;;;;;;;;;;;;-144.99;97.51;52370.63;5011046;28;20574;-63
2021/07/24 03:05:18;;;;;;;;;;;;;;;-144.99;97.48;52354.34;5011877;28;19983;-63
2021/07/24 03:07:44;;;;;;;;;;;;;;;-144.99;97.56;52336.00;5022061;28;20402;-62
2021/07/24 03:10:11;;;;;;;;;;;;;;;-144.99;97.68;52352.28;5013732;28;19975;-63
2021/07/24 03:12:37;;;;;;;;;;;;;;;-144.99;97.62;52321.72;5002717;28;19975;-63
2021/07/24 03:15:03;;;;;;;;;;;;;;;-144.99;97.66;52358.41;5008395;28;20380;-63
2021/07/24 03:17:31;;;;;;;;;;;;;;;-144.99;97.71;52333.94;5020325;28;20028;-63
2021/07/24 03:19:59;;;;;;;;;;;;;;;-144.99;97.66;52333.94;5013007;28;19977;-63
2021/07/24 03:22:25;;;;;;;;;;;;;;;-144.99;97.81;52370.63;5017825;28;19990;-63
2021/07/24 03:24:55;;;;;;;;;;;;;;;-144.99;97.74;52358.41;5012539;28;19961;-62
2021/07/24 03:27:22;;;;;;;;;;;;;;;-144.99;97.90;52338.03;5010843;28;19956;-63
2021/07/24 03:29:48;;;;;;;;;;;;;;;-144.99;98.00;52372.69;5003883;28;20447;-63
2021/07/24 03:32:14;;;;;;;;;;;;;;;-144.99;98.01;52362.50;5022704;28;20321;-63
2021/07/24 03:34:40;;;;;;;;;;;;;;;-144.99;97.83;52329.88;5010751;28;19966;-68
2021/07/24 03:37:08;;;;;;;;;;;;;;;-144.99;97.66;52333.94;5011514;28;19958;-68
2021/07/24 03:39:34;;;;;;;;;;;;;;;-144.99;97.49;52350.25;4998678;28;19987;-68
2021/07/24 03:42:01;;;;;;;;;;;;;;;-144.99;97.40;52362.50;5011619;28;19965;-64
2021/07/24 03:44:28;;;;;;;;;;;;;;;-144.99;97.45;52348.22;5002737;28;19958;-64
2021/07/24 03:46:54;;;;;;;;;;;;;;;-144.99;97.60;52346.19;5005722;28;19968;-64
2021/07/24 03:49:20;;;;;;;;;;;;;;;-144.99;97.58;52360.44;5009836;28;20440;-64
2021/07/24 03:51:47;;;;;;;;;;;;;;;-144.99;97.72;52321.72;5011158;28;20004;-66
2021/07/24 03:54:14;;;;;;;;;;;;;;;-144.99;97.63;52378.78;5017740;28;20452;-65
2021/07/24 03:56:41;;;;;;;;;;;;;;;-144.99;97.59;52358.41;5011755;28;19960;-65
2021/07/24 03:59:07;;;;;;;;;;;;;;;-144.99;97.70;52366.56;5009723;28;19973;-65
2021/07/24 04:01:33;;;;;;;;;;;;;;;-144.99;97.61;52331.91;5010535;28;19995;-65
2021/07/24 04:04:00;;;;;;;;;;;;;;;-144.99;97.69;52313.56;5009555;28;20448;-66
2021/07/24 04:06:27;;;;;;;;;;;;;;;-144.99;97.78;52346.19;5018767;28;19979;-66
2021/07/24 04:08:55;;;;;;;;;;;;;;;-144.99;97.64;52360.44;5017262;28;19965;-66
2021/07/24 04:11:24;;;;;;;;;;;;;;;-144.99;97.51;52323.75;5009528;28;19987;-67
2021/07/24 04:13:50;;;;;;;;;;;;;;;-144.99;97.33;52333.94;5011653;28;20062;-65
2021/07/24 04:16:17;;;;;;;;;;;;;;;-144.99;97.16;52333.94;5004767;28;20415;-64
2021/07/24 04:18:43;;;;;;;;;;;;;;;-144.99;97.22;52350.25;5020771;28;20036;-64
2021/07/24 04:21:10;;;;;;;;;;;;;;;-144.99;97.31;52305.41;5010702;28;19998;-64
2021/07/24 04:23:36;;;;;;;;;;;;;;;-144.99;97.32;52336.00;5020812;28;20034;-68
2021/07/24 04:26:03;;;;;;;;;;;;;;;-144.99;97.10;52344.16;5008438;28;20081;-68
2021/07/24 04:28:30;;;;;;;;;;;;;;;-144.99;97.20;52309.50;5005637;28;20405;-68
2021/07/24 04:30:57;;;;;;;;;;;;;;;-144.99;96.91;52321.72;5013460;28;20468;-63
2021/07/24 04:33:23;;;;;;;;;;;;;;;-144.99;96.86;52321.72;5018937;28;19973;-62
2021/07/24 04:35:50;;;;;;;;;;;;;;;-144.99;96.94;52319.69;5009985;28;19973;-62
2021/07/24 04:38:17;;;;;;;;;;;;;;;-144.99;96.91;52329.88;5006960;28;19925;-62
2021/07/24 04:40:44;;;;;;;;;;;;;;;-144.99;96.94;52344.16;5010139;28;19992;-63
2021/07/24 04:43:13;;;;;;;;;;;;;;;-144.99;96.89;52301.34;5009664;28;19968;-63
2021/07/24 04:45:42;;;;;;;;;;;;;;;-144.99;96.52;52354.34;4992859;28;20353;-63
2021/07/24 04:48:08;;;;;;;;;;;;;;;-144.99;96.36;52321.72;5000702;28;20391;-62
2021/07/24 04:50:35;;;;;;;;;;;;;;;-144.99;95.86;52315.59;5008942;28;20302;-63
2021/07/24 04:53:02;;;;;;;;;;;;;;;-144.99;95.63;52333.94;5012301;28;19960;-62
2021/07/24 04:55:29;;;;;;;;;;;;;;;-144.99;95.63;52315.59;5013044;28;19980;-63
2021/07/24 04:57:56;;;;;;;;;;;;;;;-144.99;95.39;52309.50;4998131;28;20450;-63
2021/07/24 05:00:22;;;;;;;;;;;;;;;-144.99;95.19;52317.66;5009574;28;20023;-62
2021/07/24 05:02:50;;;;;;;;;;;;;;;-144.99;94.65;52305.41;5013658;28;19992;-63
2021/07/24 05:05:16;;;;;;;;;;;;;;;-144.99;94.53;52313.56;5011551;28;19966;-68
2021/07/24 05:07:43;;;;;;;;;;;;;;;-144.99;94.24;52317.66;5023918;28;19967;-69
2021/07/24 05:10:10;;;;;;;;;;;;;;;-144.99;94.06;52303.38;5016105;28;19995;-69
2021/07/24 05:12:37;;;;;;;;;;;;;;;-144.99;93.83;52291.16;5012140;28;20465;-68
2021/07/24 05:15:03;;;;;;;;;;;;;;;-144.99;93.44;52317.66;5007713;28;19984;-67
2021/07/24 05:17:30;;;;;;;;;;;;;;;-144.99;93.15;52303.38;5021930;28;19973;-68
2021/07/24 05:19:57;;;;;;;;;;;;;;;-144.99;92.87;52311.53;5015893;28;20331;-67
2021/07/24 05:22:24;;;;;;;;;;;;;;;-144.99;92.31;52301.34;5018835;28;20320;-67
2021/07/24 05:24:50;;;;;;;;;;;;;;;-144.99;91.93;52268.72;5009063;28;20475;-67
2021/07/24 05:27:16;;;;;;;;;;;;;;;-144.99;91.20;52276.88;5010480;28;19947;-67
2021/07/24 05:29:43;;;;;;;;;;;;;;;-144.99;90.74;52305.41;5012352;28;20035;-67
2021/07/24 05:32:09;;;;;;;;;;;;;;;-144.99;90.09;52289.13;5021069;28;19971;-67
2021/07/24 05:34:35;;;;;;;;;;;;;;;-144.99;89.68;52289.13;5013399;28;19979;-67
2021/07/24 05:37:03;;;;;;;;;;;;;;;-144.99;89.24;52301.34;5010487;28;19961;-67
2021/07/24 05:39:30;;;;;;;;;;;;;;;-144.99;88.75;52313.56;5011000;28;19975;-69
2021/07/24 05:41:56;;;;;;;;;;;;;;;-144.99;88.07;52297.25;5000706;28;20442;-68
2021/07/24 05:44:22;;;;;;;;;;;;;;;-144.99;87.81;52285.03;4999173;28;19976;-67
2021/07/24 05:46:49;;;;;;;;;;;;;;;-144.99;87.90;52297.25;5000509;28;20416;-66
2021/07/24 05:49:15;;;;;;;;;;;;;;;-144.99;87.45;52264.66;5001736;28;19988;-66
2021/07/24 05:51:43;;;;;;;;;;;;;;;-144.99;87.09;52295.22;5016287;28;20066;-66
2021/07/24 05:54:11;;;;;;;;;;;;;;;-144.99;86.64;52264.66;5009980;28;19953;-65
2021/07/24 05:56:38;;;;;;;;;;;;;;;-144.99;86.62;52278.91;5016791;28;20012;-64
2021/07/24 05:59:04;;;;;;;;;;;;;;;-144.99;86.07;52252.44;5012597;28;20353;-64
2021/07/24 06:01:31;;;;;;;;;;;;;;;-144.99;85.75;52285.03;5013007;28;19986;-64
2021/07/24 06:03:57;;;;;;;;;;;;;;;-144.99;85.56;52270.78;5007221;28;20495;-63
2021/07/24 06:06:23;;;;;;;;;;;;;;;-144.99;85.57;52256.50;5014999;28;20370;-65
2021/07/24 06:08:50;;;;;;;;;;;;;;;-144.99;84.94;52285.03;5015008;28;19981;-64
2021/07/24 06:11:17;;;;;;;;;;;;;;;-144.99;84.59;52203.50;5011824;28;19992;-63
2021/07/24 06:13:44;;;;;;;;;;;;;;;-144.99;84.21;52297.25;5010136;28;19973;-63
2021/07/24 06:16:10;;;;;;;;;;;;;;;-144.99;83.76;52227.97;5010952;28;19984;-65
2021/07/24 06:18:37;;;;;;;;;;;;;;;-144.99;83.08;52248.34;5029892;28;19976;-63
2021/07/24 06:21:03;;;;;;;;;;;;;;;-144.99;82.85;52276.88;5018228;28;20003;-70
2021/07/24 06:23:30;;;;;;;;;;;;;;;-144.99;81.97;52248.34;5016449;28;20519;-72
2021/07/24 06:25:57;;;;;;;;;;;;;;;-144.99;81.08;52211.66;5012555;28;19965;-70
2021/07/24 06:28:25;;;;;;;;;;;;;;;-144.99;81.54;52244.28;5010069;28;19979;-71
2021/07/24 06:30:51;;;;;;;;;;;;;;;-144.99;81.38;52246.31;5014217;28;20386;-72
2021/07/24 06:33:18;;;;;;;;;;;;;;;-144.99;81.35;52240.19;5020958;28;19970;-71
2021/07/24 06:35:44;;;;;;;;;;;;;;;-144.99;81.27;52268.72;5013019;28;19978;-71
2021/07/24 06:38:12;;;;;;;;;;;;;;;-144.99;80.62;52209.63;5008172;28;19975;-70
2021/07/24 06:40:38;;;;;;;;;;;;;;;-144.99;80.42;52250.38;5010080;28;19977;-66
2021/07/24 06:43:04;;;;;;;;;;;;;;;-144.99;80.71;52268.72;5011641;28;20106;-67
2021/07/24 06:45:32;;;;;;;;;;;;;;;-144.99;80.48;52217.78;5004257;28;20579;-68
2021/07/24 06:47:58;;;;;;;;;;;;;;;-144.99;79.27;52221.84;5011402;28;20018;-68
2021/07/24 06:50:25;;;;;;;;;;;;;;;-144.99;79.47;52213.69;4999268;28;19976;-68
2021/07/24 06:52:51;;;;;;;;;;;;;;;-144.99;79.26;52205.53;5014296;28;20437;-69
2021/07/24 06:55:18;;;;;;;;;;;;;;;-144.99;78.82;52215.75;5013224;28;19951;-68
2021/07/24 06:57:44;;;;;;;;;;;;;;;-144.99;78.41;52227.97;5011189;28;19961;-71
2021/07/24 07:00:11;;;;;;;;;;;;;;;-144.99;77.92;52244.28;5011063;28;20352;-68
2021/07/24 07:02:39;;;;;;;;;;;;;;;-144.99;77.82;52266.69;5011079;28;19926;-68
2021/07/24 07:05:05;;;;;;;;;;;;;;;-144.99;77.75;52246.31;4998514;28;19976;-69
2021/07/24 07:07:32;;;;;;;;;;;;;;;-144.99;77.74;52238.16;5022125;28;19956;-68
2021/07/24 07:09:58;;;;;;;;;;;;;;;-144.99;77.55;52227.97;5015901;28;19970;-68
2021/07/24 07:12:24;;;;;;;;;;;;;;;-144.99;77.07;52223.88;5003897;28;19947;-68
2021/07/24 07:14:51;;;;;;;;;;;;;;;-144.99;77.38;52260.56;5002082;28;19955;-67
2021/07/24 07:17:17;;;;;;;;;;;;;;;-144.99;76.55;52219.81;5018655;28;20014;-68
2021/07/24 07:19:45;;;;;;;;;;;;;;;-144.99;75.59;52207.59;5010976;28;19971;-68
2021/07/24 07:22:11;;;;;;;;;;;;;;;-144.99;74.56;52221.84;5018179;28;19952;-67
2021/07/24 07:24:37;;;;;;;;;;;;;;;-144.99;73.25;52232.03;5013466;28;19985;-69
2021/07/24 07:27:04;;;;;;;;;;;;;;;-144.99;72.42;52174.97;5011253;28;19943;-69
2021/07/24 07:29:30;;;;;;;;;;;;;;;-144.99;69.96;52203.50;5008175;28;19950;-69
2021/07/24 07:31:56;;;;;;;;;;;;;;;-144.99;70.00;52215.75;5021083;28;19925;-69
2021/07/24 07:34:23;;;;;;;;;;;;;;;-144.99;69.74;52191.28;5010149;28;19944;-67
2021/07/24 07:36:50;;;;;;;;;;;;;;;-144.99;69.48;52191.28;5010229;28;19952;-67
2021/07/24 07:39:17;;;;;;;;;;;;;;;-144.99;67.57;52179.06;5005973;28;19940;-68
2021/07/24 07:41:43;;;;;;;;;;;;;;;-144.99;67.41;52203.50;5008549;28;19932;-68
2021/07/24 07:44:09;;;;;;;;;;;;;;;-144.99;66.98;52195.34;5008701;28;19969;-68
2021/07/24 07:46:36;;;;;;;;;;;;;;;-144.99;66.71;52232.03;5008950;28;19956;-68
2021/07/24 07:49:02;;;;;;;;;;;;;;;-144.99;66.45;52209.63;5009874;28;19933;-68
2021/07/24 07:51:29;;;;;;;;;;;;;;;-144.99;66.11;52191.28;5012668;28;19968;-68
2021/07/24 07:53:56;;;;;;;;;;;;;;;-144.99;65.82;52187.19;5011561;28;19955;-68
2021/07/24 07:56:23;;;;;;;;;;;;;;;-144.99;64.44;52142.38;5012291;28;19925;-72
2021/07/24 07:58:49;;;;;;;;;;;;;;;-144.99;63.85;52170.91;5009309;28;20296;-72
2021/07/24 08:01:15;;;;;;;;;;;;;;;-144.99;63.31;52170.91;5009773;28;19926;-72
2021/07/24 08:03:42;;;;;;;;;;;;;;;-144.99;62.63;52215.75;5009848;28;19925;-72
2021/07/24 08:06:08;;;;;;;;;;;;;;;-144.99;61.35;52162.75;5005871;28;20417;-72
2021/07/24 08:08:35;;;;;;;;;;;;;;;-144.99;60.44;52174.97;5014843;28;19930;-72
2021/07/24 08:11:03;;;;;;;;;;;;;;;-144.99;60.90;52179.06;5018657;28;20406;-72
2021/07/24 08:13:30;;;;;;;;;;;;;;;-144.99;60.97;52195.34;5012825;28;20278;-72
2021/07/24 08:15:56;;;;;;;;;;;;;;;-144.99;59.53;52195.34;5010186;28;20402;-72
2021/07/24 08:18:22;;;;;;;;;;;;;;;-144.99;58.68;52166.81;5010256;28;19926;-72
2021/07/24 08:20:49;;;;;;;;;;;;;;;-144.99;59.02;52150.53;5005480;28;20189;-72
2021/07/24 08:23:15;;;;;;;;;;;;;;;-144.99;58.47;52189.25;5017537;28;20284;-72
2021/07/24 08:25:42;;;;;;;;;;;;;;;-144.99;58.59;52166.81;5008941;28;20418;-73
2021/07/24 08:28:10;;;;;;;;;;;;;;;-144.99;58.07;52164.78;5006386;28;19925;-72
2021/07/24 08:30:37;;;;;;;;;;;;;;;-144.99;57.89;52179.06;5013845;28;19977;-71
2021/07/24 08:33:03;;;;;;;;;;;;;;;-144.99;57.92;52168.84;5016850;28;19930;-71
2021/07/24 08:35:30;;;;;;;;;;;;;;;-144.99;57.47;52195.34;5012203;28;19925;-67
2021/07/24 08:37:56;;;;;;;;;;;;;;;-144.99;57.30;52174.97;5016104;28;20398;-72
2021/07/24 08:40:23;;;;;;;;;;;;;;;-144.99;57.53;52207.59;5018893;28;19925;-72
2021/07/24 08:42:49;;;;;;;;;;;;;;;-144.99;56.76;52215.75;5013868;28;20333;-72
2021/07/24 08:45:17;;;;;;;;;;;;;;;-144.99;56.58;52168.84;5005471;28;20214;-72
2021/07/24 08:47:44;;;;;;;;;;;;;;;-144.99;55.77;52191.28;5013638;28;19963;-72
2021/07/24 08:50:11;;;;;;;;;;;;;;;-144.99;57.04;52160.72;5013723;28;19944;-72
2021/07/24 08:52:38;;;;;;;;;;;;;;;-144.99;57.48;52160.72;5018759;28;19932;-73
2021/07/24 08:55:06;;;;;;;;;;;;;;;-144.99;57.32;52170.91;5018277;28;20165;-71
2021/07/24 08:57:34;;;;;;;;;;;;;;;-144.99;56.50;52177.00;5013289;28;20542;-70
2021/07/24 09:00:02;;;;;;;;;;;;;;;-144.99;56.68;52154.59;5013033;28;19933;-71
2021/07/24 09:02:30;;;;;;;;;;;;;;;-144.99;56.48;52146.44;5014146;28;19925;-71
2021/07/24 09:05:01;;;;;;;;;;;;;;;-144.99;55.39;52117.91;5008243;28;20025;-71
2021/07/24 09:07:29;;;;;;;;;;;;;;;-144.99;55.26;52146.44;5023025;28;19973;-72
2021/07/24 09:09:56;;;;;;;;;;;;;;;-144.99;55.53;52164.78;5019748;28;19925;-71
2021/07/24 09:12:22;;;;;;;;;;;;;;;-144.99;55.88;52128.09;5012668;28;19929;-68
2021/07/24 09:14:49;;;;;;;;;;;;;;;-144.99;54.30;52156.63;5014553;28;20390;-71
2021/07/24 09:17:19;;;;;;;;;;;;;;;-144.99;54.41;52189.25;5020147;28;19926;-71
2021/07/24 09:19:46;;;;;;;;;;;;;;;-144.99;54.03;52164.78;5016322;28;19934;-71
2021/07/24 09:22:26;;;;;;;;;;;;;;;-144.99;53.83;52158.66;5010167;28;19925;-71
2021/07/24 09:25:04;;;;;;;;;;;;;;;-144.99;53.15;52166.81;5009912;28;21656;-71
2021/07/24 09:27:30;;;;;;;;;;;;;;;-144.99;53.50;52158.66;5009250;28;20671;-71
2021/07/24 09:29:56;;;;;;;;;;;;;;;-144.99;52.99;52152.56;5008572;28;19930;-71
2021/07/24 09:32:23;;;;;;;;;;;;;;;-144.99;53.66;52146.44;5009595;28;19932;-71
2021/07/24 09:34:51;;;;;;;;;;;;;;;-144.99;52.62;52134.22;5007597;28;19926;-69
2021/07/24 09:37:24;;;;;;;;;;;;;;;-144.99;51.76;52124.03;5008160;28;19930;-71
2021/07/24 09:39:51;;;;;;;;;;;;;;;-144.99;51.94;52146.44;5008060;28;19925;-72
2021/07/24 09:42:19;;;;;;;;;;;;;;;-144.99;52.42;52099.56;5008153;28;20419;-71
2021/07/24 09:44:45;;;;;;;;;;;;;;;-144.99;52.32;52117.91;5003253;28;19975;-71
2021/07/24 09:47:26;;;;;;;;;;;;;;;-144.99;50.29;52146.44;5009840;28;19944;-71
2021/07/24 09:50:08;;;;;;;;;;;;;;;-144.99;51.52;52132.19;5004786;28;19926;-72
2021/07/24 09:52:44;;;;;;;;;;;;;;;-144.99;50.84;52158.66;5002213;28;19926;-72
2021/07/24 09:55:17;;;;;;;;;;;;;;;-144.99;52.67;52138.28;5010568;28;19952;-73
2021/07/24 09:57:44;;;;;;;;;;;;;;;-144.99;52.18;52154.59;5011098;28;19926;-75
2021/07/24 10:00:21;;;;;;;;;;;;;;;-144.99;52.14;52160.72;4997690;28;19936;-74
2021/07/24 10:02:47;;;;;;;;;;;;;;;-144.99;52.73;52170.91;5009239;28;20412;-74
2021/07/24 10:05:16;;;;;;;;;;;;;;;-144.99;54.18;52134.22;5010251;28;19933;-72
2021/07/24 10:07:42;;;;;;;;;;;;;;;-144.99;53.88;52187.19;5011823;28;19929;-73
2021/07/24 10:10:09;;;;;;;;;;;;;;;-144.99;53.40;52138.28;5010383;28;19949;-73
2021/07/24 10:12:36;;;;;;;;;;;;;;;-144.99;51.94;52121.97;5010473;28;19925;-75
2021/07/24 10:15:04;;;;;;;;;;;;;;;-144.99;50.80;52115.88;5009374;28;20363;-73
2021/07/24 10:17:30;;;;;;;;;;;;;;;-144.99;50.38;52146.44;5005456;28;19925;-74
2021/07/24 10:19:57;;;;;;;;;;;;;;;-144.99;50.58;52107.72;5012409;28;19925;-76
2021/07/24 10:22:25;;;;;;;;;;;;;;;-144.99;50.41;52121.97;5018233;28;19933;-74
2021/07/24 10:24:52;;;;;;;;;;;;;;;-144.99;50.72;52142.38;5010338;28;20016;-73
2021/07/24 10:27:23;;;;;;;;;;;;;;;-144.99;51.56;52134.22;5010301;28;20391;-74
2021/07/24 10:29:51;;;;;;;;;;;;;;;-144.99;52.60;52119.94;5006036;28;19932;-74
2021/07/24 10:32:24;;;;;;;;;;;;;;;-144.99;52.34;52132.19;5010126;28;19926;-76
2021/07/24 10:34:52;;;;;;;;;;;;;;;-144.99;51.25;52138.28;5010078;28;19937;-73
2021/07/24 10:37:35;;;;;;;;;;;;;;;-144.99;51.56;52117.91;5010721;28;20076;-75
2021/07/24 10:40:32;;;;;;;;;;;;;;;-144.99;51.16;52069.00;5019620;28;20419;-72
2021/07/24 10:43:02;;;;;;;;;;;;;;;-144.99;49.64;52085.31;5010324;28;19941;-75
2021/07/24 10:45:47;;;;;;;;;;;;;;;-144.99;48.76;52081.22;5009882;28;19943;-72
2021/07/24 10:48:21;;;;;;;;;;;;;;;-144.99;48.64;52081.22;5002451;28;19926;-73
2021/07/24 10:51:05;;;;;;;;;;;;;;;-144.99;48.79;52089.38;5010971;28;19926;-72
2021/07/24 10:54:04;;;;;;;;;;;;;;;-144.99;47.99;52064.91;4999988;28;19945;-72
2021/07/24 10:56:41;;;;;;;;;;;;;;;-144.99;47.59;52060.84;5002960;28;20315;-75
2021/07/24 10:59:24;;;;;;;;;;;;;;;-144.99;46.47;52066.97;5001294;28;20020;-74
2021/07/24 11:01:51;;;;;;;;;;;;;;;-144.99;46.48;52046.56;4997633;28;20388;-72
2021/07/24 11:04:36;;;;;;;;;;;;;;;-144.99;46.40;52052.69;5008045;28;20406;-73
2021/07/24 11:07:21;;;;;;;;;;;;;;;-144.99;46.66;52066.97;5003138;28;19936;-73
2021/07/24 11:10:04;;;;;;;;;;;;;;;-144.99;45.99;52052.69;5005905;28;19929;-75
2021/07/24 11:12:33;;;;;;;;;;;;;;;-144.99;44.90;51991.56;5006315;28;19967;-78
2021/07/24 11:15:00;;;;;;;;;;;;;;;-144.99;44.71;52007.84;5007396;28;20603;-72
2021/07/24 11:17:27;;;;;;;;;;;;;;;-144.99;44.17;52024.16;5004566;28;20058;-73
2021/07/24 11:20:12;;;;;;;;;;;;;;;-144.99;43.67;52003.78;5005178;28;19925;-73
2021/07/24 11:22:59;;;;;;;;;;;;;;;-144.99;43.25;51969.13;5008236;28;20028;-75
2021/07/24 11:25:32;;;;;;;;;;;;;;;-144.99;43.24;51963.03;5008822;28;20024;-74
2021/07/24 11:27:59;;;;;;;;;;;;;;;-144.99;42.38;51979.31;5003192;28;19925;-72
2021/07/24 11:30:26;;;;;;;;;;;;;;;-144.99;42.34;51999.69;5008106;28;19952;-75
2021/07/24 11:32:54;;;;;;;;;;;;;;;-144.99;42.12;52003.78;4654545;28;10000365;-74
2021/07/24 11:35:23;;;;;;;;;;;;;;;-144.99;41.56;51971.16;5007642;28;20372;-77
2021/07/24 11:37:51;;;;;;;;;;;;;;;-144.99;41.95;51979.31;5000451;28;19936;-76
2021/07/24 11:40:19;;;;;;;;;;;;;;;-144.99;40.90;52016.00;4998366;28;20004;-73
2021/07/24 11:42:57;;;;;;;;;;;;;;;-144.99;41.29;51991.56;5007977;28;19938;-71
2021/07/24 11:45:23;;;;;;;;;;;;;;;-144.99;41.42;51956.91;5010460;28;19960;-72
2021/07/24 11:47:50;;;;;;;;;;;;;;;-144.99;40.48;51985.44;5015384;28;20015;-76
2021/07/24 11:50:16;;;;;;;;;;;;;;;-144.99;40.11;51954.88;5000695;28;19929;-74
2021/07/24 11:52:45;;;;;;;;;;;;;;;-144.99;40.34;51934.50;5017443;28;19925;-73
2021/07/24 11:55:12;;;;;;;;;;;;;;;-144.99;39.64;51916.16;5009756;28;19933;-77
2021/07/24 11:57:39;;;;;;;;;;;;;;;-144.99;39.25;51958.94;5010094;28;19929;-72
2021/07/24 12:00:08;;;;;;;;;;;;;;;-144.99;39.82;51991.56;5004906;28;20261;-72
2021/07/24 12:02:34;;;;;;;;;;;;;;;-144.99;39.12;51954.88;4999734;28;19944;-73
2021/07/24 12:05:01;;;;;;;;;;;;;;;-144.99;39.35;51971.16;5005778;28;19966;-74
2021/07/24 12:07:27;;;;;;;;;;;;;;;-144.99;38.68;51975.25;5005890;28;19930;-73
2021/07/24 12:09:54;;;;;;;;;;;;;;;-144.99;38.71;51979.31;5013199;28;19929;-75
2021/07/24 12:12:23;;;;;;;;;;;;;;;-144.99;39.43;52016.00;5012060;28;20304;-76
2021/07/24 12:14:55;;;;;;;;;;;;;;;-144.99;39.42;51987.47;5008085;28;19932;-75
2021/07/24 12:17:25;;;;;;;;;;;;;;;-144.99;39.68;51987.47;5000978;28;19925;-74
2021/07/24 12:19:53;;;;;;;;;;;;;;;-144.99;39.59;51979.31;5007834;28;20230;-75
2021/07/24 12:22:20;;;;;;;;;;;;;;;-144.99;39.18;51971.16;5006372;28;19933;-73
2021/07/24 12:24:47;;;;;;;;;;;;;;;-144.99;39.23;51924.28;5005716;28;19926;-79
2021/07/24 12:27:14;;;;;;;;;;;;;;;-144.99;39.03;52003.78;5008273;28;19925;-74
2021/07/24 12:29:53;;;;;;;;;;;;;;;-144.99;39.57;52028.22;5008596;28;19929;-77
2021/07/24 12:32:21;;;;;;;;;;;;;;;-144.99;40.85;52087.34;5007300;28;19925;-74